createdAt,value
2019-01-09T00:01:38.588Z,1.94
2019-01-09T00:04:35.328Z,1.94
2019-01-09T00:07:31.073Z,1.97
2019-01-09T00:10:28.592Z,1.98
2019-01-09T00:13:24.005Z,1.98
2019-01-09T00:16:20.178Z,2.00
2019-01-09T00:19:16.933Z,1.99
2019-01-09T00:22:13.405Z,1.97
2019-01-09T00:25:09.141Z,1.96
2019-01-09T00:28:05.697Z,1.96
2019-01-09T00:31:02.139Z,1.98
2019-01-09T00:33:59.609Z,1.97
2019-01-09T00:36:57.161Z,1.96
2019-01-09T00:39:54.934Z,1.96
2019-01-09T00:42:51.717Z,1.96
2019-01-09T00:45:47.499Z,1.94
2019-01-09T00:48:44.618Z,1.92
2019-01-09T00:51:40.017Z,1.91
2019-01-09T00:54:36.557Z,1.94
2019-01-09T00:57:33.011Z,1.96
2019-01-09T01:00:29.757Z,1.97
2019-01-09T01:03:49.819Z,1.96
2019-01-09T01:07:17.000Z,1.98
2019-01-09T01:10:46.132Z,1.99
2019-01-09T01:14:14.908Z,1.98
2019-01-09T01:17:49.105Z,1.99
2019-01-09T01:21:09.730Z,1.97
2019-01-09T01:24:29.729Z,1.96
2019-01-09T01:27:47.700Z,1.95
2019-01-09T01:31:19.809Z,1.92
2019-01-09T01:34:41.340Z,1.92
2019-01-09T01:38:15.915Z,1.93
2019-01-09T01:41:39.463Z,1.94
2019-01-09T01:44:56.481Z,1.94
2019-01-09T01:48:16.039Z,1.93
2019-01-09T01:51:41.277Z,1.95
2019-01-09T01:55:20.720Z,1.96
2019-01-09T01:58:59.700Z,1.94
2019-01-09T02:02:30.149Z,1.90
2019-01-09T02:06:03.778Z,1.83
2019-01-09T02:09:40.304Z,1.82
2019-01-09T02:13:11.471Z,1.81
2019-01-09T02:16:50.905Z,1.84
2019-01-09T02:20:00.678Z,1.86
2019-01-09T02:23:34.895Z,1.86
2019-01-09T02:26:57.029Z,1.85
2019-01-09T02:30:18.790Z,1.83
2019-01-09T02:33:16.115Z,1.82
2019-01-09T02:36:13.722Z,1.81
2019-01-09T02:39:09.775Z,1.82
2019-01-09T02:42:07.329Z,1.80
2019-01-09T02:45:03.769Z,1.74
2019-01-09T02:48:00.001Z,1.69
2019-01-09T02:50:55.705Z,1.61
2019-01-09T02:53:52.181Z,1.63
2019-01-09T02:56:48.563Z,1.64
2019-01-09T02:59:45.244Z,1.66
2019-01-09T03:02:41.758Z,1.69
2019-01-09T03:05:38.387Z,1.72
2019-01-09T03:08:33.910Z,1.74
2019-01-09T03:11:30.546Z,1.76
2019-01-09T03:14:27.505Z,1.77
2019-01-09T03:17:23.040Z,1.79
2019-01-09T03:20:20.223Z,1.77
2019-01-09T03:23:16.843Z,1.73
2019-01-09T03:26:13.646Z,1.70
2019-01-09T03:29:09.376Z,1.66
2019-01-09T03:32:06.121Z,1.65
2019-01-09T03:35:03.816Z,1.62
2019-01-09T03:37:58.999Z,1.61
2019-01-09T03:40:55.800Z,1.62
2019-01-09T03:43:53.094Z,1.61
2019-01-09T03:46:49.122Z,1.58
2019-01-09T03:49:44.669Z,1.58
2019-01-09T03:52:41.279Z,1.58
2019-01-09T03:55:37.297Z,1.57
2019-01-09T03:58:33.912Z,1.56
2019-01-09T04:01:30.683Z,1.53
2019-01-09T04:04:26.406Z,1.52
2019-01-09T04:07:22.913Z,1.51
2019-01-09T04:10:18.238Z,1.51
2019-01-09T04:13:15.685Z,1.51
2019-01-09T04:16:11.507Z,1.53
2019-01-09T04:19:07.927Z,1.53
2019-01-09T04:22:03.846Z,1.47
2019-01-09T04:25:00.729Z,1.47
2019-01-09T04:27:57.545Z,1.44
2019-01-09T04:30:53.321Z,1.41
2019-01-09T04:33:50.832Z,1.40
2019-01-09T04:36:51.277Z,1.39
2019-01-09T04:39:44.612Z,1.36
2019-01-09T04:42:41.567Z,1.33
2019-01-09T04:45:39.398Z,1.33
2019-01-09T04:48:35.994Z,1.30
2019-01-09T04:51:31.761Z,1.28
2019-01-09T04:54:29.392Z,1.29
2019-01-09T04:57:25.114Z,1.31
2019-01-09T05:00:21.240Z,1.31
2019-01-09T05:03:18.052Z,1.29
2019-01-09T05:06:14.927Z,1.29
2019-01-09T05:09:11.748Z,1.29
2019-01-09T05:12:07.266Z,1.29
2019-01-09T05:15:04.933Z,1.26
2019-01-09T05:18:04.369Z,1.28
2019-01-09T05:21:01.235Z,1.26
2019-01-09T05:23:59.019Z,1.25
2019-01-09T05:26:53.959Z,1.27
2019-01-09T05:29:50.554Z,1.26
2019-01-09T05:32:47.258Z,1.25
2019-01-09T05:35:44.127Z,1.26
2019-01-09T05:38:40.968Z,1.27
2019-01-09T05:41:36.514Z,1.26
2019-01-09T05:44:33.066Z,1.27
2019-01-09T05:47:28.772Z,1.27
2019-01-09T05:50:25.861Z,1.27
2019-01-09T05:53:21.235Z,1.30
2019-01-09T05:56:17.815Z,1.29
2019-01-09T05:59:14.460Z,1.30
2019-01-09T06:02:09.992Z,1.31
2019-01-09T06:05:08.756Z,1.30
2019-01-09T06:08:04.208Z,1.30
2019-01-09T06:11:00.754Z,1.30
2019-01-09T06:13:56.638Z,1.30
2019-01-09T06:16:52.419Z,1.30
2019-01-09T06:19:49.156Z,1.34
2019-01-09T06:22:44.718Z,1.36
2019-01-09T06:25:42.673Z,1.38
2019-01-09T06:28:38.279Z,1.38
2019-01-09T06:31:35.841Z,1.38
2019-01-09T06:34:32.744Z,1.38
2019-01-09T06:37:28.695Z,1.40
2019-01-09T06:40:24.412Z,1.42
2019-01-09T06:43:22.134Z,1.41
2019-01-09T06:46:19.965Z,1.41
2019-01-09T06:49:17.634Z,1.44
2019-01-09T06:52:14.380Z,1.45
2019-01-09T06:55:10.958Z,1.44
2019-01-09T06:58:07.209Z,1.40
2019-01-09T07:01:02.988Z,1.40
2019-01-09T07:03:59.772Z,1.37
2019-01-09T07:06:55.289Z,1.33
2019-01-09T07:09:52.122Z,1.32
2019-01-09T07:12:47.696Z,1.30
2019-01-09T07:15:45.548Z,1.27
2019-01-09T07:18:42.322Z,1.25
2019-01-09T07:21:45.479Z,1.27
2019-01-09T07:24:34.628Z,1.30
2019-01-09T07:27:31.221Z,1.31
2019-01-09T07:30:26.484Z,1.22
2019-01-09T07:33:23.035Z,1.11
2019-01-09T07:36:19.744Z,0.99
2019-01-09T07:39:16.264Z,0.89
2019-01-09T07:42:13.171Z,0.86
2019-01-09T07:45:08.833Z,0.85
2019-01-09T07:48:05.667Z,0.89
2019-01-09T07:51:02.228Z,0.92
2019-01-09T07:53:58.323Z,1.02
2019-01-09T07:56:55.024Z,1.08
2019-01-09T07:59:51.462Z,1.11
2019-01-09T08:02:46.977Z,1.16
2019-01-09T08:05:44.444Z,1.17
2019-01-09T08:08:40.069Z,1.18
2019-01-09T08:11:36.490Z,1.18
2019-01-09T08:14:32.123Z,1.19
2019-01-09T08:17:28.652Z,1.22
2019-01-09T08:20:25.191Z,1.22
2019-01-09T08:23:22.177Z,1.24
2019-01-09T08:26:19.806Z,1.26
2019-01-09T08:29:15.293Z,1.28
2019-01-09T08:32:11.877Z,1.30
2019-01-09T08:35:07.316Z,1.30
2019-01-09T08:38:03.333Z,1.29
2019-01-09T08:40:58.595Z,1.30
2019-01-09T08:43:55.368Z,1.34
2019-01-09T08:46:53.203Z,1.36
2019-01-09T08:49:49.748Z,1.39
2019-01-09T08:52:47.238Z,1.39
2019-01-09T08:55:42.951Z,1.40
2019-01-09T08:58:40.693Z,1.41
2019-01-09T09:01:37.255Z,1.43
2019-01-09T09:04:33.117Z,1.43
2019-01-09T09:07:30.738Z,1.50
2019-01-09T09:10:26.337Z,1.52
2019-01-09T09:13:23.144Z,1.54
2019-01-09T09:16:19.874Z,1.57
2019-01-09T09:19:16.708Z,1.52
2019-01-09T09:22:12.323Z,1.46
2019-01-09T09:25:09.090Z,1.42
2019-01-09T09:28:03.946Z,1.40
2019-01-09T09:31:00.203Z,1.35
2019-01-09T09:33:56.849Z,1.32
2019-01-09T09:36:53.394Z,1.26
2019-01-09T09:39:54.746Z,1.26
2019-01-09T09:42:51.367Z,1.25
2019-01-09T09:45:48.091Z,1.22
2019-01-09T09:48:44.747Z,1.21
2019-01-09T09:51:41.387Z,1.21
2019-01-09T09:54:38.933Z,1.16
2019-01-09T09:57:35.986Z,1.17
2019-01-09T10:00:35.836Z,1.17
2019-01-09T10:03:31.329Z,1.10
2019-01-09T10:06:27.733Z,1.08
2019-01-09T10:09:26.271Z,1.07
2019-01-09T10:12:21.663Z,1.04
2019-01-09T10:15:19.432Z,1.05
2019-01-09T10:18:14.833Z,1.03
2019-01-09T10:21:11.371Z,1.05
2019-01-09T10:24:06.877Z,1.07
2019-01-09T10:27:03.649Z,1.08
2019-01-09T10:29:59.540Z,1.09
2019-01-09T10:32:56.306Z,1.09
2019-01-09T10:35:51.993Z,1.17
2019-01-09T10:38:48.958Z,1.17
2019-01-09T10:41:45.571Z,1.17
2019-01-09T10:44:41.291Z,1.13
2019-01-09T10:47:37.815Z,1.18
2019-01-09T10:50:33.232Z,1.20
2019-01-09T10:53:30.031Z,1.19
2019-01-09T10:56:26.725Z,1.20
2019-01-09T10:59:24.380Z,1.18
2019-01-09T11:02:22.031Z,1.21
2019-01-09T11:05:17.842Z,1.23
2019-01-09T11:08:14.372Z,1.24
2019-01-09T11:11:10.130Z,1.27
2019-01-09T11:14:06.626Z,1.26
2019-01-09T11:17:03.014Z,1.25
2019-01-09T11:19:58.548Z,1.27
2019-01-09T11:22:55.352Z,1.22
2019-01-09T11:25:50.741Z,1.24
2019-01-09T11:28:47.280Z,1.29
2019-01-09T11:31:45.045Z,1.34
2019-01-09T11:34:40.793Z,1.37
2019-01-09T11:37:39.175Z,1.35
2019-01-09T11:40:34.601Z,1.31
2019-01-09T11:43:31.370Z,1.34
2019-01-09T11:46:26.858Z,1.35
2019-01-09T11:49:23.853Z,1.36
2019-01-09T11:52:20.317Z,1.37
2019-01-09T11:55:19.116Z,1.38
2019-01-09T11:58:16.707Z,1.43
2019-01-09T12:01:12.315Z,1.43
2019-01-09T12:04:08.395Z,1.47
2019-01-09T12:07:05.201Z,1.51
2019-01-09T12:10:02.034Z,1.54
2019-01-09T12:12:58.573Z,1.57
2019-01-09T12:15:54.118Z,1.56
2019-01-09T12:18:52.711Z,1.53
2019-01-09T12:21:48.235Z,1.48
2019-01-09T12:24:44.814Z,1.45
2019-01-09T12:27:40.123Z,1.35
2019-01-09T12:30:39.677Z,1.34
2019-01-09T12:33:36.516Z,1.34
2019-01-09T12:36:33.215Z,1.33
2019-01-09T12:39:29.737Z,1.30
2019-01-09T12:42:25.586Z,1.26
2019-01-09T12:45:22.263Z,1.20
2019-01-09T12:48:18.435Z,1.17
2019-01-09T12:51:15.310Z,1.16
2019-01-09T12:54:12.243Z,1.19
2019-01-09T12:57:08.913Z,1.17
2019-01-09T13:00:07.488Z,1.15
2019-01-09T13:03:03.306Z,1.17
2019-01-09T13:06:00.082Z,1.02
2019-01-09T13:08:56.715Z,0.98
2019-01-09T13:11:54.617Z,0.99
2019-01-09T13:14:49.870Z,0.99
2019-01-09T13:17:46.468Z,0.93
2019-01-09T13:20:43.289Z,0.88
2019-01-09T13:23:40.058Z,0.86
2019-01-09T13:26:36.635Z,0.84
2019-01-09T13:29:32.340Z,0.80
2019-01-09T13:32:28.971Z,0.81
2019-01-09T13:35:24.556Z,0.80
2019-01-09T13:38:21.278Z,0.75
2019-01-09T13:41:17.876Z,0.78
2019-01-09T13:44:14.289Z,0.78
2019-01-09T13:47:09.868Z,0.74
2019-01-09T13:50:06.620Z,0.71
2019-01-09T13:53:04.203Z,0.72
2019-01-09T13:56:00.048Z,0.76
2019-01-09T13:58:56.681Z,0.73
2019-01-09T14:01:54.350Z,0.72
2019-01-09T14:04:50.881Z,0.74
2019-01-09T14:07:46.179Z,0.76
2019-01-09T14:10:48.242Z,0.73
2019-01-09T14:13:45.440Z,0.70
2019-01-09T14:16:41.220Z,0.75
2019-01-09T14:19:37.753Z,0.76
2019-01-09T14:22:33.407Z,0.76
2019-01-09T14:25:29.736Z,0.71
2019-01-09T14:28:25.275Z,0.68
2019-01-09T14:31:22.903Z,0.66
2019-01-09T14:34:19.537Z,0.63
2019-01-09T14:37:16.468Z,0.61
2019-01-09T14:40:12.920Z,0.62
2019-01-09T14:43:08.577Z,0.62
2019-01-09T14:46:05.243Z,0.61
2019-01-09T14:49:02.150Z,0.61
2019-01-09T14:51:59.912Z,0.60
2019-01-09T14:54:55.876Z,0.60
2019-01-09T14:57:52.672Z,0.54
2019-01-09T15:00:49.127Z,0.51
2019-01-09T15:03:46.396Z,0.54
2019-01-09T15:06:41.752Z,0.56
2019-01-09T15:09:38.570Z,0.54
2019-01-09T15:12:36.199Z,0.51
2019-01-09T15:15:31.558Z,0.50
2019-01-09T15:18:28.131Z,0.49
2019-01-09T15:21:23.569Z,0.48
2019-01-09T15:24:20.139Z,0.44
2019-01-09T15:27:16.425Z,0.41
2019-01-09T15:30:13.397Z,0.40
2019-01-09T15:33:11.191Z,0.37
2019-01-09T15:36:07.997Z,0.36
2019-01-09T15:39:04.649Z,0.34
2019-01-09T15:42:01.017Z,0.37
2019-01-09T15:44:57.765Z,0.35
2019-01-09T15:47:53.277Z,0.34
2019-01-09T15:50:49.043Z,0.31
2019-01-09T15:53:45.582Z,0.30
2019-01-09T15:56:42.240Z,0.28
2019-01-09T15:59:39.063Z,0.28
2019-01-09T16:02:36.854Z,0.26
2019-01-09T16:05:34.838Z,0.22
2019-01-09T16:08:30.768Z,0.24
2019-01-09T16:11:27.475Z,0.23
2019-01-09T16:14:24.036Z,0.22
2019-01-09T16:17:22.118Z,0.19
2019-01-09T16:20:18.279Z,0.15
2019-01-09T16:23:15.039Z,0.19
2019-01-09T16:26:11.987Z,0.18
2019-01-09T16:29:09.857Z,0.15
2019-01-09T16:32:06.544Z,0.16
2019-01-09T16:35:03.435Z,0.13
2019-01-09T16:38:00.087Z,0.13
2019-01-09T16:40:55.574Z,0.15
2019-01-09T16:43:52.242Z,0.17
2019-01-09T16:46:47.685Z,0.15
2019-01-09T16:49:45.175Z,0.13
2019-01-09T16:52:41.702Z,0.15
2019-01-09T16:55:38.456Z,0.11
2019-01-09T16:58:34.773Z,0.13
2019-01-09T17:01:30.175Z,0.15
2019-01-09T17:04:27.964Z,0.11
2019-01-09T17:07:24.268Z,0.13
2019-01-09T17:10:19.465Z,0.11
2019-01-09T17:13:17.352Z,0.10
2019-01-09T17:16:13.709Z,0.12
2019-01-09T17:19:11.352Z,0.10
2019-01-09T17:22:09.230Z,0.12
2019-01-09T17:25:06.291Z,0.15
2019-01-09T17:28:03.158Z,0.13
2019-01-09T17:30:58.862Z,0.13
2019-01-09T17:33:56.269Z,0.12
2019-01-09T17:36:53.594Z,0.11
2019-01-09T17:39:51.011Z,0.09
2019-01-09T17:42:47.913Z,0.05
2019-01-09T17:45:43.763Z,0.07
2019-01-09T17:48:40.510Z,0.05
2019-01-09T17:51:37.118Z,0.06
2019-01-09T17:54:35.018Z,0.06
2019-01-09T17:57:30.813Z,0.04
2019-01-09T18:00:31.627Z,0.00
2019-01-09T18:03:28.092Z,0.03
2019-01-09T18:06:24.549Z,0.05
2019-01-09T18:09:28.288Z,0.03
2019-01-09T18:12:24.981Z,0.05
2019-01-09T18:15:22.721Z,0.03
2019-01-09T18:18:19.464Z,0.03
2019-01-09T18:21:16.150Z,0.02
2019-01-09T18:24:12.993Z,0.00
2019-01-09T18:27:09.931Z,0.00
2019-01-09T18:30:06.829Z,0.00
2019-01-09T18:33:19.223Z,-0.02
2019-01-09T18:36:40.808Z,-0.02
2019-01-09T18:40:21.031Z,0.02
2019-01-09T18:44:03.091Z,-0.04
2019-01-09T18:47:32.148Z,-0.05
2019-01-09T18:51:18.765Z,-0.03
2019-01-09T18:54:14.159Z,-0.05
2019-01-09T18:57:10.924Z,-0.06
2019-01-09T19:00:06.561Z,-0.06
2019-01-09T19:03:03.372Z,-0.05
2019-01-09T19:06:00.249Z,-0.05
2019-01-09T19:08:56.263Z,-0.04
2019-01-09T19:11:54.244Z,-0.06
2019-01-09T19:14:51.104Z,-0.09
2019-01-09T19:17:47.899Z,-0.06
2019-01-09T19:20:43.722Z,-0.04
2019-01-09T19:23:40.479Z,-0.06
2019-01-09T19:26:37.275Z,-0.08
2019-01-09T19:29:33.972Z,-0.11
2019-01-09T19:32:30.271Z,-0.09
2019-01-09T19:35:26.636Z,-0.08
2019-01-09T19:38:24.554Z,-0.10
2019-01-09T19:41:20.218Z,-0.11
2019-01-09T19:44:17.311Z,-0.10
2019-01-09T19:47:14.261Z,-0.10
2019-01-09T19:50:11.233Z,-0.11
2019-01-09T19:53:08.158Z,-0.10
2019-01-09T19:56:04.282Z,-0.09
2019-01-09T19:59:02.252Z,-0.08
2019-01-09T20:01:58.636Z,-0.07
2019-01-09T20:04:56.625Z,-0.07
2019-01-09T20:07:52.471Z,-0.11
2019-01-09T20:10:49.454Z,-0.13
2019-01-09T20:13:46.394Z,-0.11
2019-01-09T20:16:44.425Z,-0.09
2019-01-09T20:19:40.527Z,-0.11
2019-01-09T20:22:37.457Z,-0.12
2019-01-09T20:25:34.271Z,-0.15
2019-01-09T20:28:31.362Z,-0.12
2019-01-09T20:31:27.867Z,-0.13
2019-01-09T20:34:23.651Z,-0.14
2019-01-09T20:37:22.574Z,-0.11
2019-01-09T20:40:22.546Z,-0.10
2019-01-09T20:43:20.376Z,-0.11
2019-01-09T20:46:17.015Z,-0.13
2019-01-09T20:49:14.156Z,-0.11
2019-01-09T20:52:10.871Z,-0.11
2019-01-09T20:55:07.689Z,-0.12
2019-01-09T20:58:04.311Z,-0.12
2019-01-09T21:00:59.550Z,-0.11
2019-01-09T21:03:56.563Z,-0.10
2019-01-09T21:06:54.464Z,-0.13
2019-01-09T21:09:50.666Z,-0.13
2019-01-09T21:12:48.430Z,-0.13
2019-01-09T21:15:45.006Z,-0.12
2019-01-09T21:18:44.345Z,-0.12
2019-01-09T21:21:41.180Z,-0.14
2019-01-09T21:24:36.942Z,-0.13
2019-01-09T21:27:41.823Z,-0.12
2019-01-09T21:30:30.580Z,-0.13
2019-01-09T21:33:27.167Z,-0.11
2019-01-09T21:36:25.097Z,-0.11
2019-01-09T21:39:25.635Z,-0.12
2019-01-09T21:42:22.587Z,-0.11
2019-01-09T21:45:20.491Z,-0.12
2019-01-09T21:48:17.510Z,-0.12
2019-01-09T21:51:13.245Z,-0.10
2019-01-09T21:54:09.948Z,-0.13
2019-01-09T21:57:07.140Z,-0.12
2019-01-09T22:00:01.814Z,-0.13
2019-01-09T22:02:58.555Z,-0.13
2019-01-09T22:05:55.204Z,-0.14
2019-01-09T22:08:51.729Z,-0.17
2019-01-09T22:11:49.690Z,-0.13
2019-01-09T22:14:46.267Z,-0.12
2019-01-09T22:17:46.277Z,-0.10
2019-01-09T22:20:40.730Z,-0.10
2019-01-09T22:23:36.730Z,-0.12
2019-01-09T22:26:32.827Z,-0.13
2019-01-09T22:29:28.383Z,-0.14
2019-01-09T22:32:24.860Z,-0.13
2019-01-09T22:35:21.730Z,-0.15
2019-01-09T22:38:19.384Z,-0.15
2019-01-09T22:41:14.911Z,-0.16
2019-01-09T22:44:11.482Z,-0.15
2019-01-09T22:47:08.341Z,-0.17
2019-01-09T22:50:04.945Z,-0.15
2019-01-09T22:53:01.589Z,-0.16
2019-01-09T22:55:57.414Z,-0.19
2019-01-09T22:58:55.345Z,-0.17
2019-01-09T23:01:51.215Z,-0.16
2019-01-09T23:04:47.801Z,-0.16
2019-01-09T23:07:44.178Z,-0.16
2019-01-09T23:10:39.970Z,-0.17
2019-01-09T23:13:35.585Z,-0.18
2019-01-09T23:16:32.123Z,-0.20
2019-01-09T23:19:31.063Z,-0.18
2019-01-09T23:22:28.620Z,-0.16
2019-01-09T23:25:24.305Z,-0.18
2019-01-09T23:28:21.004Z,-0.18
2019-01-09T23:31:16.390Z,-0.16
2019-01-09T23:34:12.892Z,-0.17
2019-01-09T23:37:07.592Z,-0.17
2019-01-09T23:40:05.154Z,-0.18
2019-01-09T23:43:02.269Z,-0.21
2019-01-09T23:45:58.061Z,-0.19
2019-01-09T23:48:55.816Z,-0.18
2019-01-09T23:51:51.404Z,-0.19
2019-01-09T23:54:48.062Z,-0.18
2019-01-09T23:57:43.561Z,-0.20
